sensor_id;sensor_type;location;lat;lon;timestamp;P1;durP1;ratioP1;P2;durP2;ratioP2
40963;SDS011;26693;51.168;4.138;2022-12-16T00:00:24;10.88;;;3.85;;
40963;SDS011;26693;51.168;4.138;2022-12-16T00:01:25;7.25;;;3.00;;
40963;SDS011;26693;51.168;4.138;2022-12-16T00:02:26;7.93;;;4.50;;
40963;SDS011;26693;51.168;4.138;2022-12-16T00:03:27;3.50;;;0.98;;
40963;SDS011;26693;51.168;4.138;2022-12-16T00:04:28;6.28;;;2.58;;
40963;SDS011;26693;51.168;4.138;2022-12-16T00:05:28;3.90;;;1.60;;
40963;SDS011;26693;51.168;4.138;2022-12-16T00:06:30;11.65;;;7.25;;
40963;SDS011;26693;51.168;4.138;2022-12-16T00:07:32;2.38;;;1.25;;
40963;SDS011;26693;51.168;4.138;2022-12-16T00:08:34;4.45;;;3.40;;
40963;SDS011;26693;51.168;4.138;2022-12-16T00:09:36;15.55;;;6.00;;
40963;SDS011;26693;51.168;4.138;2022-12-16T00:10:37;11.68;;;5.75;;
40963;SDS011;26693;51.168;4.138;2022-12-16T00:11:51;4.80;;;2.53;;
40963;SDS011;26693;51.168;4.138;2022-12-16T00:12:52;6.22;;;4.35;;
40963;SDS011;26693;51.168;4.138;2022-12-16T00:13:53;12.50;;;6.78;;
40963;SDS011;26693;51.168;4.138;2022-12-16T00:14:53;3.40;;;2.55;;
40963;SDS011;26693;51.168;4.138;2022-12-16T00:15:54;6.95;;;3.80;;
40963;SDS011;26693;51.168;4.138;2022-12-16T00:16:55;1.13;;;1.02;;
40963;SDS011;26693;51.168;4.138;2022-12-16T00:17:55;8.73;;;3.13;;
40963;SDS011;26693;51.168;4.138;2022-12-16T00:18:56;15.85;;;9.02;;
40963;SDS011;26693;51.168;4.138;2022-12-16T00:19:57;4.90;;;2.67;;
40963;SDS011;26693;51.168;4.138;2022-12-16T00:20:57;15.48;;;6.05;;
40963;SDS011;26693;51.168;4.138;2022-12-16T00:21:58;5.15;;;3.33;;
40963;SDS011;26693;51.168;4.138;2022-12-16T00:22:58;8.20;;;3.88;;
40963;SDS011;26693;51.168;4.138;2022-12-16T00:23:59;6.65;;;4.25;;
40963;SDS011;26693;51.168;4.138;2022-12-16T00:25:00;2.90;;;2.03;;
40963;SDS011;26693;51.168;4.138;2022-12-16T00:26:01;10.43;;;4.70;;
40963;SDS011;26693;51.168;4.138;2022-12-16T00:27:01;9.18;;;5.57;;
40963;SDS011;26693;51.168;4.138;2022-12-16T00:28:02;10.85;;;3.83;;
40963;SDS011;26693;51.168;4.138;2022-12-16T00:29:03;11.20;;;6.53;;
40963;SDS011;26693;51.168;4.138;2022-12-16T00:30:06;10.20;;;4.30;;
40963;SDS011;26693;51.168;4.138;2022-12-16T00:31:07;30.40;;;4.18;;
40963;SDS011;26693;51.168;4.138;2022-12-16T00:32:08;6.82;;;3.70;;
40963;SDS011;26693;51.168;4.138;2022-12-16T00:33:09;4.70;;;2.28;;
40963;SDS011;26693;51.168;4.138;2022-12-16T00:34:10;11.88;;;6.07;;
40963;SDS011;26693;51.168;4.138;2022-12-16T00:35:10;5.22;;;2.50;;
40963;SDS011;26693;51.168;4.138;2022-12-16T00:36:11;2.72;;;1.67;;
40963;SDS011;26693;51.168;4.138;2022-12-16T00:37:11;0.80;;;0.80;;
40963;SDS011;26693;51.168;4.138;2022-12-16T00:38:12;8.65;;;4.00;;
40963;SDS011;26693;51.168;4.138;2022-12-16T00:39:13;6.35;;;3.22;;
40963;SDS011;26693;51.168;4.138;2022-12-16T00:40:14;8.90;;;1.70;;
40963;SDS011;26693;51.168;4.138;2022-12-16T00:41:15;6.80;;;2.17;;
40963;SDS011;26693;51.168;4.138;2022-12-16T00:42:15;1.55;;;1.45;;
40963;SDS011;26693;51.168;4.138;2022-12-16T00:43:16;5.40;;;2.67;;
40963;SDS011;26693;51.168;4.138;2022-12-16T00:44:17;4.70;;;2.33;;
40963;SDS011;26693;51.168;4.138;2022-12-16T00:45:17;6.93;;;4.10;;
40963;SDS011;26693;51.168;4.138;2022-12-16T00:46:18;11.48;;;5.70;;
40963;SDS011;26693;51.168;4.138;2022-12-16T00:47:19;5.32;;;4.40;;
40963;SDS011;26693;51.168;4.138;2022-12-16T00:48:20;5.45;;;3.25;;
40963;SDS011;26693;51.168;4.138;2022-12-16T00:49:24;9.00;;;3.35;;
40963;SDS011;26693;51.168;4.138;2022-12-16T00:50:25;9.35;;;4.55;;
40963;SDS011;26693;51.168;4.138;2022-12-16T00:51:25;5.88;;;4.05;;
40963;SDS011;26693;51.168;4.138;2022-12-16T00:52:26;21.50;;;4.88;;
40963;SDS011;26693;51.168;4.138;2022-12-16T00:53:27;7.85;;;6.07;;
40963;SDS011;26693;51.168;4.138;2022-12-16T00:54:27;2.28;;;1.92;;
40963;SDS011;26693;51.168;4.138;2022-12-16T00:55:28;6.65;;;3.33;;
40963;SDS011;26693;51.168;4.138;2022-12-16T00:56:29;7.32;;;3.95;;
40963;SDS011;26693;51.168;4.138;2022-12-16T00:57:30;4.03;;;3.20;;
40963;SDS011;26693;51.168;4.138;2022-12-16T00:58:30;14.98;;;4.05;;
40963;SDS011;26693;51.168;4.138;2022-12-16T00:59:31;6.00;;;5.47;;
40963;SDS011;26693;51.168;4.138;2022-12-16T01:00:32;1.83;;;1.45;;
40963;SDS011;26693;51.168;4.138;2022-12-16T01:01:32;8.15;;;3.83;;
40963;SDS011;26693;51.168;4.138;2022-12-16T01:02:33;5.82;;;3.42;;
40963;SDS011;26693;51.168;4.138;2022-12-16T01:03:34;10.50;;;3.28;;
40963;SDS011;26693;51.168;4.138;2022-12-16T01:04:35;1.02;;;1.02;;
40963;SDS011;26693;51.168;4.138;2022-12-16T01:05:36;5.68;;;2.63;;
40963;SDS011;26693;51.168;4.138;2022-12-16T01:06:38;29.52;;;11.60;;
40963;SDS011;26693;51.168;4.138;2022-12-16T01:07:39;2.85;;;1.73;;
40963;SDS011;26693;51.168;4.138;2022-12-16T01:08:40;13.45;;;4.30;;
40963;SDS011;26693;51.168;4.138;2022-12-16T01:09:47;4.65;;;4.15;;
40963;SDS011;26693;51.168;4.138;2022-12-16T01:10:52;7.50;;;4.78;;
40963;SDS011;26693;51.168;4.138;2022-12-16T01:11:54;2.70;;;2.45;;
40963;SDS011;26693;51.168;4.138;2022-12-16T01:12:55;3.10;;;1.90;;
40963;SDS011;26693;51.168;4.138;2022-12-16T01:13:56;1.58;;;1.48;;
40963;SDS011;26693;51.168;4.138;2022-12-16T01:14:56;5.05;;;1.40;;
40963;SDS011;26693;51.168;4.138;2022-12-16T01:16:01;1.65;;;1.35;;
40963;SDS011;26693;51.168;4.138;2022-12-16T01:17:01;8.75;;;3.78;;
40963;SDS011;26693;51.168;4.138;2022-12-16T01:18:02;3.67;;;0.88;;
40963;SDS011;26693;51.168;4.138;2022-12-16T01:19:03;4.38;;;2.47;;
40963;SDS011;26693;51.168;4.138;2022-12-16T01:20:04;2.40;;;2.20;;
40963;SDS011;26693;51.168;4.138;2022-12-16T01:21:06;2.05;;;1.85;;
40963;SDS011;26693;51.168;4.138;2022-12-16T01:22:07;6.07;;;2.38;;
40963;SDS011;26693;51.168;4.138;2022-12-16T01:23:08;8.02;;;3.67;;
40963;SDS011;26693;51.168;4.138;2022-12-16T01:24:09;3.47;;;2.28;;
40963;SDS011;26693;51.168;4.138;2022-12-16T01:25:10;1.77;;;1.65;;
40963;SDS011;26693;51.168;4.138;2022-12-16T01:26:15;1.95;;;1.85;;
40963;SDS011;26693;51.168;4.138;2022-12-16T01:27:17;0.52;;;0.52;;
40963;SDS011;26693;51.168;4.138;2022-12-16T01:28:17;3.03;;;2.35;;
40963;SDS011;26693;51.168;4.138;2022-12-16T01:29:18;4.00;;;2.45;;
40963;SDS011;26693;51.168;4.138;2022-12-16T01:30:18;3.20;;;1.70;;
40963;SDS011;26693;51.168;4.138;2022-12-16T01:31:19;4.22;;;2.80;;
40963;SDS011;26693;51.168;4.138;2022-12-16T01:32:21;3.30;;;2.30;;
40963;SDS011;26693;51.168;4.138;2022-12-16T01:33:22;3.83;;;1.00;;
40963;SDS011;26693;51.168;4.138;2022-12-16T01:34:23;1.23;;;1.15;;
40963;SDS011;26693;51.168;4.138;2022-12-16T01:35:23;0.75;;;0.43;;
40963;SDS011;26693;51.168;4.138;2022-12-16T01:36:24;0.50;;;0.40;;
40963;SDS011;26693;51.168;4.138;2022-12-16T01:37:25;0.10;;;0.10;;
40963;SDS011;26693;51.168;4.138;2022-12-16T01:38:26;0.80;;;0.80;;
40963;SDS011;26693;51.168;4.138;2022-12-16T01:39:27;1.55;;;0.88;;
40963;SDS011;26693;51.168;4.138;2022-12-16T01:40:29;5.05;;;2.72;;
40963;SDS011;26693;51.168;4.138;2022-12-16T01:41:30;4.53;;;1.23;;
40963;SDS011;26693;51.168;4.138;2022-12-16T01:42:30;0.47;;;0.47;;
40963;SDS011;26693;51.168;4.138;2022-12-16T01:43:33;1.05;;;1.05;;
40963;SDS011;26693;51.168;4.138;2022-12-16T01:44:36;3.63;;;2.58;;
40963;SDS011;26693;51.168;4.138;2022-12-16T01:45:37;3.83;;;1.33;;
40963;SDS011;26693;51.168;4.138;2022-12-16T01:46:38;5.18;;;1.05;;
40963;SDS011;26693;51.168;4.138;2022-12-16T01:47:39;2.00;;;1.80;;
40963;SDS011;26693;51.168;4.138;2022-12-16T01:50:02;1.38;;;0.80;;
40963;SDS011;26693;51.168;4.138;2022-12-16T01:51:10;0.38;;;0.38;;
40963;SDS011;26693;51.168;4.138;2022-12-16T01:52:34;5.68;;;3.17;;
40963;SDS011;26693;51.168;4.138;2022-12-16T01:53:41;2.35;;;1.40;;
40963;SDS011;26693;51.168;4.138;2022-12-16T01:54:47;0.10;;;0.10;;
40963;SDS011;26693;51.168;4.138;2022-12-16T01:55:52;1.63;;;1.25;;
40963;SDS011;26693;51.168;4.138;2022-12-16T01:56:59;1.33;;;0.80;;
40963;SDS011;26693;51.168;4.138;2022-12-16T01:58:07;0.28;;;0.22;;
40963;SDS011;26693;51.168;4.138;2022-12-16T01:59:12;5.00;;;0.75;;
40963;SDS011;26693;51.168;4.138;2022-12-16T02:00:16;0.82;;;0.75;;
40963;SDS011;26693;51.168;4.138;2022-12-16T02:01:17;1.77;;;1.63;;
40963;SDS011;26693;51.168;4.138;2022-12-16T02:02:18;4.32;;;1.65;;
40963;SDS011;26693;51.168;4.138;2022-12-16T02:03:20;0.00;;;0.00;;
40963;SDS011;26693;51.168;4.138;2022-12-16T02:04:21;0.10;;;0.10;;
40963;SDS011;26693;51.168;4.138;2022-12-16T02:05:22;0.43;;;0.40;;
40963;SDS011;26693;51.168;4.138;2022-12-16T02:06:23;0.03;;;0.03;;
40963;SDS011;26693;51.168;4.138;2022-12-16T02:07:24;1.27;;;0.90;;
40963;SDS011;26693;51.168;4.138;2022-12-16T02:08:25;0.77;;;0.63;;
40963;SDS011;26693;51.168;4.138;2022-12-16T02:09:26;0.00;;;0.00;;
40963;SDS011;26693;51.168;4.138;2022-12-16T02:17:32;0.00;;;0.00;;
40963;SDS011;26693;51.168;4.138;2022-12-16T02:22:07;4.45;;;1.35;;
40963;SDS011;26693;51.168;4.138;2022-12-16T02:29:43;0.00;;;0.00;;
40963;SDS011;26693;51.168;4.138;2022-12-16T02:39:05;1.20;;;0.30;;
40963;SDS011;26693;51.168;4.138;2022-12-16T02:40:26;0.52;;;0.52;;
40963;SDS011;26693;51.168;4.138;2022-12-16T02:43:06;0.35;;;0.35;;
40963;SDS011;26693;51.168;4.138;2022-12-16T02:44:16;3.72;;;0.75;;
40963;SDS011;26693;51.168;4.138;2022-12-16T02:45:19;0.25;;;0.20;;
40963;SDS011;26693;51.168;4.138;2022-12-16T02:46:28;0.35;;;0.35;;
40963;SDS011;26693;51.168;4.138;2022-12-16T02:47:32;0.00;;;0.00;;
40963;SDS011;26693;51.168;4.138;2022-12-16T02:48:32;0.00;;;0.00;;
40963;SDS011;26693;51.168;4.138;2022-12-16T02:50:34;0.00;;;0.00;;
40963;SDS011;26693;51.168;4.138;2022-12-16T02:51:38;0.00;;;0.00;;
40963;SDS011;26693;51.168;4.138;2022-12-16T02:52:39;1.13;;;0.45;;
40963;SDS011;26693;51.168;4.138;2022-12-16T02:53:40;0.00;;;0.00;;
40963;SDS011;26693;51.168;4.138;2022-12-16T02:54:43;0.00;;;0.00;;
40963;SDS011;26693;51.168;4.138;2022-12-16T02:58:02;0.05;;;0.00;;
40963;SDS011;26693;51.168;4.138;2022-12-16T03:00:24;0.05;;;0.05;;
40963;SDS011;26693;51.168;4.138;2022-12-16T03:01:35;0.10;;;0.10;;
40963;SDS011;26693;51.168;4.138;2022-12-16T03:02:58;0.65;;;0.65;;
40963;SDS011;26693;51.168;4.138;2022-12-16T03:04:39;0.00;;;0.00;;
40963;SDS011;26693;51.168;4.138;2022-12-16T03:05:49;0.00;;;0.00;;
40963;SDS011;26693;51.168;4.138;2022-12-16T03:06:51;0.10;;;0.10;;
40963;SDS011;26693;51.168;4.138;2022-12-16T03:07:55;9.05;;;2.25;;
40963;SDS011;26693;51.168;4.138;2022-12-16T03:08:58;1.83;;;0.75;;
40963;SDS011;26693;51.168;4.138;2022-12-16T03:10:03;0.52;;;0.52;;
40963;SDS011;26693;51.168;4.138;2022-12-16T03:11:07;0.00;;;0.00;;
40963;SDS011;26693;51.168;4.138;2022-12-16T03:12:09;0.20;;;0.20;;
40963;SDS011;26693;51.168;4.138;2022-12-16T03:13:13;0.10;;;0.10;;
40963;SDS011;26693;51.168;4.138;2022-12-16T03:14:17;0.00;;;0.00;;
40963;SDS011;26693;51.168;4.138;2022-12-16T03:15:20;0.20;;;0.20;;
40963;SDS011;26693;51.168;4.138;2022-12-16T03:16:26;0.00;;;0.00;;
40963;SDS011;26693;51.168;4.138;2022-12-16T03:17:30;0.10;;;0.10;;
40963;SDS011;26693;51.168;4.138;2022-12-16T03:18:31;15.93;;;0.73;;
40963;SDS011;26693;51.168;4.138;2022-12-16T03:19:33;0.10;;;0.10;;
40963;SDS011;26693;51.168;4.138;2022-12-16T03:20:48;0.00;;;0.00;;
40963;SDS011;26693;51.168;4.138;2022-12-16T03:21:58;0.00;;;0.00;;
40963;SDS011;26693;51.168;4.138;2022-12-16T03:23:07;0.13;;;0.13;;
40963;SDS011;26693;51.168;4.138;2022-12-16T03:24:12;0.95;;;0.85;;
40963;SDS011;26693;51.168;4.138;2022-12-16T03:25:13;0.00;;;0.00;;
40963;SDS011;26693;51.168;4.138;2022-12-16T03:26:20;0.00;;;0.00;;
40963;SDS011;26693;51.168;4.138;2022-12-16T03:27:26;3.75;;;0.47;;
40963;SDS011;26693;51.168;4.138;2022-12-16T03:28:41;0.17;;;0.17;;
40963;SDS011;26693;51.168;4.138;2022-12-16T03:30:01;0.40;;;0.40;;
40963;SDS011;26693;51.168;4.138;2022-12-16T03:33:05;0.63;;;0.63;;
40963;SDS011;26693;51.168;4.138;2022-12-16T03:34:55;0.03;;;0.03;;
40963;SDS011;26693;51.168;4.138;2022-12-16T03:36:09;2.17;;;0.80;;
40963;SDS011;26693;51.168;4.138;2022-12-16T03:37:14;0.30;;;0.30;;
40963;SDS011;26693;51.168;4.138;2022-12-16T03:38:15;1.25;;;0.88;;
40963;SDS011;26693;51.168;4.138;2022-12-16T03:39:18;0.00;;;0.00;;
40963;SDS011;26693;51.168;4.138;2022-12-16T03:40:20;1.25;;;0.65;;
40963;SDS011;26693;51.168;4.138;2022-12-16T03:41:23;0.00;;;0.00;;
40963;SDS011;26693;51.168;4.138;2022-12-16T03:42:24;0.20;;;0.20;;
40963;SDS011;26693;51.168;4.138;2022-12-16T03:43:25;0.15;;;0.13;;
40963;SDS011;26693;51.168;4.138;2022-12-16T03:44:26;0.50;;;0.50;;
40963;SDS011;26693;51.168;4.138;2022-12-16T03:45:31;1.63;;;1.52;;
40963;SDS011;26693;51.168;4.138;2022-12-16T03:46:37;0.52;;;0.32;;
40963;SDS011;26693;51.168;4.138;2022-12-16T03:47:37;0.70;;;0.68;;
40963;SDS011;26693;51.168;4.138;2022-12-16T03:48:43;1.50;;;1.40;;
40963;SDS011;26693;51.168;4.138;2022-12-16T03:49:45;0.10;;;0.10;;
40963;SDS011;26693;51.168;4.138;2022-12-16T03:50:46;0.00;;;0.00;;
40963;SDS011;26693;51.168;4.138;2022-12-16T03:51:46;0.10;;;0.10;;
40963;SDS011;26693;51.168;4.138;2022-12-16T03:52:47;0.00;;;0.00;;
40963;SDS011;26693;51.168;4.138;2022-12-16T03:53:47;0.22;;;0.22;;
40963;SDS011;26693;51.168;4.138;2022-12-16T03:54:48;0.10;;;0.10;;
40963;SDS011;26693;51.168;4.138;2022-12-16T03:55:49;0.45;;;0.32;;
40963;SDS011;26693;51.168;4.138;2022-12-16T03:56:49;0.00;;;0.00;;
40963;SDS011;26693;51.168;4.138;2022-12-16T03:57:50;0.00;;;0.00;;
40963;SDS011;26693;51.168;4.138;2022-12-16T03:58:51;0.00;;;0.00;;
40963;SDS011;26693;51.168;4.138;2022-12-16T03:59:51;3.20;;;0.57;;
40963;SDS011;26693;51.168;4.138;2022-12-16T04:00:52;0.00;;;0.00;;
40963;SDS011;26693;51.168;4.138;2022-12-16T04:01:52;0.00;;;0.00;;
40963;SDS011;26693;51.168;4.138;2022-12-16T04:02:53;0.00;;;0.00;;
40963;SDS011;26693;51.168;4.138;2022-12-16T04:03:54;0.08;;;0.08;;
40963;SDS011;26693;51.168;4.138;2022-12-16T04:04:54;0.10;;;0.10;;
40963;SDS011;26693;51.168;4.138;2022-12-16T04:05:55;0.00;;;0.00;;
40963;SDS011;26693;51.168;4.138;2022-12-16T04:06:55;0.40;;;0.40;;
40963;SDS011;26693;51.168;4.138;2022-12-16T04:08:15;0.08;;;0.08;;
40963;SDS011;26693;51.168;4.138;2022-12-16T04:09:15;0.52;;;0.52;;
40963;SDS011;26693;51.168;4.138;2022-12-16T04:10:16;0.22;;;0.22;;
40963;SDS011;26693;51.168;4.138;2022-12-16T04:11:36;0.10;;;0.10;;
40963;SDS011;26693;51.168;4.138;2022-12-16T04:12:55;0.00;;;0.00;;
40963;SDS011;26693;51.168;4.138;2022-12-16T04:14:14;0.15;;;0.15;;
40963;SDS011;26693;51.168;4.138;2022-12-16T04:15:34;0.10;;;0.10;;
40963;SDS011;26693;51.168;4.138;2022-12-16T04:16:53;0.60;;;0.47;;
40963;SDS011;26693;51.168;4.138;2022-12-16T04:19:35;0.45;;;0.45;;
40963;SDS011;26693;51.168;4.138;2022-12-16T04:20:55;9.15;;;0.68;;
40963;SDS011;26693;51.168;4.138;2022-12-16T04:24:11;1.08;;;0.98;;
40963;SDS011;26693;51.168;4.138;2022-12-16T04:25:28;0.00;;;0.00;;
40963;SDS011;26693;51.168;4.138;2022-12-16T04:26:32;0.65;;;0.65;;
40963;SDS011;26693;51.168;4.138;2022-12-16T04:27:52;0.22;;;0.22;;
40963;SDS011;26693;51.168;4.138;2022-12-16T04:28:53;0.00;;;0.00;;
40963;SDS011;26693;51.168;4.138;2022-12-16T04:29:54;1.10;;;0.40;;
40963;SDS011;26693;51.168;4.138;2022-12-16T04:31:13;0.10;;;0.10;;
40963;SDS011;26693;51.168;4.138;2022-12-16T04:32:14;0.10;;;0.10;;
40963;SDS011;26693;51.168;4.138;2022-12-16T04:33:14;0.47;;;0.47;;
40963;SDS011;26693;51.168;4.138;2022-12-16T04:34:34;0.85;;;0.85;;
40963;SDS011;26693;51.168;4.138;2022-12-16T04:35:35;0.60;;;0.60;;
40963;SDS011;26693;51.168;4.138;2022-12-16T04:36:58;0.28;;;0.17;;
40963;SDS011;26693;51.168;4.138;2022-12-16T04:38:18;0.00;;;0.00;;
40963;SDS011;26693;51.168;4.138;2022-12-16T04:39:37;0.68;;;0.68;;
40963;SDS011;26693;51.168;4.138;2022-12-16T04:40:57;0.10;;;0.10;;
40963;SDS011;26693;51.168;4.138;2022-12-16T04:42:16;0.55;;;0.55;;
40963;SDS011;26693;51.168;4.138;2022-12-16T04:43:35;0.32;;;0.32;;
40963;SDS011;26693;51.168;4.138;2022-12-16T04:44:54;2.45;;;1.75;;
40963;SDS011;26693;51.168;4.138;2022-12-16T04:46:13;0.15;;;0.15;;
40963;SDS011;26693;51.168;4.138;2022-12-16T04:47:32;0.38;;;0.38;;
40963;SDS011;26693;51.168;4.138;2022-12-16T04:48:51;0.00;;;0.00;;
40963;SDS011;26693;51.168;4.138;2022-12-16T04:50:10;0.90;;;0.68;;
40963;SDS011;26693;51.168;4.138;2022-12-16T04:51:30;0.10;;;0.10;;
40963;SDS011;26693;51.168;4.138;2022-12-16T04:52:49;0.17;;;0.10;;
40963;SDS011;26693;51.168;4.138;2022-12-16T04:54:09;0.47;;;0.47;;
40963;SDS011;26693;51.168;4.138;2022-12-16T04:55:28;0.47;;;0.32;;
40963;SDS011;26693;51.168;4.138;2022-12-16T04:56:48;0.45;;;0.45;;
40963;SDS011;26693;51.168;4.138;2022-12-16T04:58:27;0.65;;;0.63;;
40963;SDS011;26693;51.168;4.138;2022-12-16T04:59:46;0.10;;;0.10;;
40963;SDS011;26693;51.168;4.138;2022-12-16T05:01:05;0.52;;;0.52;;
40963;SDS011;26693;51.168;4.138;2022-12-16T05:02:24;0.68;;;0.65;;
40963;SDS011;26693;51.168;4.138;2022-12-16T05:03:43;1.45;;;1.20;;
40963;SDS011;26693;51.168;4.138;2022-12-16T05:05:07;0.57;;;0.35;;
40963;SDS011;26693;51.168;4.138;2022-12-16T05:06:26;1.60;;;1.10;;
40963;SDS011;26693;51.168;4.138;2022-12-16T05:07:45;3.25;;;0.88;;
40963;SDS011;26693;51.168;4.138;2022-12-16T05:09:04;0.98;;;0.93;;
40963;SDS011;26693;51.168;4.138;2022-12-16T05:10:24;27.15;;;1.35;;
40963;SDS011;26693;51.168;4.138;2022-12-16T05:11:43;1.40;;;1.02;;
40963;SDS011;26693;51.168;4.138;2022-12-16T05:13:02;1.15;;;1.13;;
40963;SDS011;26693;51.168;4.138;2022-12-16T05:14:21;0.30;;;0.30;;
40963;SDS011;26693;51.168;4.138;2022-12-16T05:15:40;0.85;;;0.43;;
40963;SDS011;26693;51.168;4.138;2022-12-16T05:16:59;0.47;;;0.25;;
40963;SDS011;26693;51.168;4.138;2022-12-16T05:18:18;1.05;;;1.05;;
40963;SDS011;26693;51.168;4.138;2022-12-16T05:19:38;0.55;;;0.47;;
40963;SDS011;26693;51.168;4.138;2022-12-16T05:20:57;0.57;;;0.43;;
40963;SDS011;26693;51.168;4.138;2022-12-16T05:22:18;0.03;;;0.03;;
40963;SDS011;26693;51.168;4.138;2022-12-16T05:23:37;1.20;;;1.10;;
40963;SDS011;26693;51.168;4.138;2022-12-16T05:24:56;0.88;;;0.88;;
40963;SDS011;26693;51.168;4.138;2022-12-16T05:26:15;0.63;;;0.63;;
40963;SDS011;26693;51.168;4.138;2022-12-16T05:27:34;0.50;;;0.50;;
40963;SDS011;26693;51.168;4.138;2022-12-16T05:28:53;1.65;;;1.27;;
40963;SDS011;26693;51.168;4.138;2022-12-16T05:30:12;0.95;;;0.88;;
40963;SDS011;26693;51.168;4.138;2022-12-16T05:31:31;0.73;;;0.73;;
40963;SDS011;26693;51.168;4.138;2022-12-16T05:32:50;2.50;;;1.13;;
40963;SDS011;26693;51.168;4.138;2022-12-16T05:34:10;0.40;;;0.40;;
40963;SDS011;26693;51.168;4.138;2022-12-16T05:35:29;0.17;;;0.17;;
40963;SDS011;26693;51.168;4.138;2022-12-16T05:37:07;0.20;;;0.20;;
40963;SDS011;26693;51.168;4.138;2022-12-16T05:38:27;1.02;;;1.02;;
40963;SDS011;26693;51.168;4.138;2022-12-16T05:39:46;0.20;;;0.20;;
40963;SDS011;26693;51.168;4.138;2022-12-16T05:41:05;0.75;;;0.75;;
40963;SDS011;26693;51.168;4.138;2022-12-16T05:42:25;0.20;;;0.13;;
40963;SDS011;26693;51.168;4.138;2022-12-16T05:43:44;0.20;;;0.20;;
40963;SDS011;26693;51.168;4.138;2022-12-16T05:45:03;0.30;;;0.28;;
40963;SDS011;26693;51.168;4.138;2022-12-16T05:46:22;2.35;;;1.73;;
40963;SDS011;26693;51.168;4.138;2022-12-16T05:47:41;1.60;;;0.40;;
40963;SDS011;26693;51.168;4.138;2022-12-16T05:49:00;0.25;;;0.25;;
40963;SDS011;26693;51.168;4.138;2022-12-16T05:50:19;0.25;;;0.25;;
40963;SDS011;26693;51.168;4.138;2022-12-16T05:51:38;0.68;;;0.68;;
40963;SDS011;26693;51.168;4.138;2022-12-16T05:52:57;4.97;;;0.98;;
40963;SDS011;26693;51.168;4.138;2022-12-16T05:54:16;1.10;;;1.02;;
40963;SDS011;26693;51.168;4.138;2022-12-16T05:55:35;1.00;;;0.95;;
40963;SDS011;26693;51.168;4.138;2022-12-16T05:56:55;0.30;;;0.30;;
40963;SDS011;26693;51.168;4.138;2022-12-16T05:58:14;0.38;;;0.38;;
40963;SDS011;26693;51.168;4.138;2022-12-16T05:59:33;0.70;;;0.70;;
40963;SDS011;26693;51.168;4.138;2022-12-16T06:00:52;0.22;;;0.22;;
40963;SDS011;26693;51.168;4.138;2022-12-16T06:02:11;0.45;;;0.45;;
40963;SDS011;26693;51.168;4.138;2022-12-16T06:03:30;0.20;;;0.20;;
40963;SDS011;26693;51.168;4.138;2022-12-16T06:04:49;0.43;;;0.28;;
40963;SDS011;26693;51.168;4.138;2022-12-16T06:06:08;0.20;;;0.20;;
40963;SDS011;26693;51.168;4.138;2022-12-16T06:07:27;0.30;;;0.30;;
40963;SDS011;26693;51.168;4.138;2022-12-16T06:08:46;0.45;;;0.45;;
40963;SDS011;26693;51.168;4.138;2022-12-16T06:10:06;1.05;;;1.00;;
40963;SDS011;26693;51.168;4.138;2022-12-16T06:12:45;0.70;;;0.70;;
40963;SDS011;26693;51.168;4.138;2022-12-16T06:14:05;1.27;;;0.93;;
40963;SDS011;26693;51.168;4.138;2022-12-16T06:15:24;1.17;;;0.60;;
40963;SDS011;26693;51.168;4.138;2022-12-16T06:16:43;0.77;;;0.77;;
40963;SDS011;26693;51.168;4.138;2022-12-16T06:18:02;0.75;;;0.73;;
40963;SDS011;26693;51.168;4.138;2022-12-16T06:19:22;0.80;;;0.80;;
40963;SDS011;26693;51.168;4.138;2022-12-16T06:20:41;0.30;;;0.30;;
40963;SDS011;26693;51.168;4.138;2022-12-16T06:22:00;0.75;;;0.75;;
40963;SDS011;26693;51.168;4.138;2022-12-16T06:23:20;1.85;;;0.75;;
40963;SDS011;26693;51.168;4.138;2022-12-16T06:24:39;1.02;;;0.95;;
40963;SDS011;26693;51.168;4.138;2022-12-16T06:25:58;0.47;;;0.30;;
40963;SDS011;26693;51.168;4.138;2022-12-16T06:27:17;0.57;;;0.57;;
40963;SDS011;26693;51.168;4.138;2022-12-16T06:28:36;0.90;;;0.90;;
40963;SDS011;26693;51.168;4.138;2022-12-16T06:29:55;0.88;;;0.85;;
40963;SDS011;26693;51.168;4.138;2022-12-16T06:31:14;1.63;;;0.82;;
40963;SDS011;26693;51.168;4.138;2022-12-16T06:32:34;1.85;;;0.40;;
40963;SDS011;26693;51.168;4.138;2022-12-16T06:33:53;0.85;;;0.65;;
40963;SDS011;26693;51.168;4.138;2022-12-16T06:36:32;0.30;;;0.30;;
40963;SDS011;26693;51.168;4.138;2022-12-16T06:37:51;0.25;;;0.25;;
40963;SDS011;26693;51.168;4.138;2022-12-16T06:39:10;2.90;;;1.17;;
40963;SDS011;26693;51.168;4.138;2022-12-16T06:40:29;0.68;;;0.47;;
40963;SDS011;26693;51.168;4.138;2022-12-16T06:41:49;0.28;;;0.28;;
40963;SDS011;26693;51.168;4.138;2022-12-16T06:43:08;0.40;;;0.40;;
40963;SDS011;26693;51.168;4.138;2022-12-16T06:44:28;0.20;;;0.20;;
40963;SDS011;26693;51.168;4.138;2022-12-16T06:45:47;1.30;;;0.70;;
40963;SDS011;26693;51.168;4.138;2022-12-16T06:47:06;4.53;;;2.20;;
40963;SDS011;26693;51.168;4.138;2022-12-16T06:48:25;0.90;;;0.85;;
40963;SDS011;26693;51.168;4.138;2022-12-16T06:49:44;0.60;;;0.60;;
40963;SDS011;26693;51.168;4.138;2022-12-16T06:51:03;0.98;;;0.63;;
40963;SDS011;26693;51.168;4.138;2022-12-16T06:52:23;1.02;;;0.95;;
40963;SDS011;26693;51.168;4.138;2022-12-16T06:53:42;0.95;;;0.88;;
40963;SDS011;26693;51.168;4.138;2022-12-16T06:55:02;1.05;;;0.80;;
40963;SDS011;26693;51.168;4.138;2022-12-16T06:56:21;1.15;;;1.08;;
40963;SDS011;26693;51.168;4.138;2022-12-16T06:57:40;3.67;;;1.45;;
40963;SDS011;26693;51.168;4.138;2022-12-16T06:58:59;6.43;;;2.05;;
40963;SDS011;26693;51.168;4.138;2022-12-16T07:00:15;0.70;;;0.70;;
40963;SDS011;26693;51.168;4.138;2022-12-16T07:01:34;2.50;;;1.17;;
40963;SDS011;26693;51.168;4.138;2022-12-16T07:02:53;4.47;;;1.10;;
40963;SDS011;26693;51.168;4.138;2022-12-16T07:04:12;4.70;;;2.83;;
40963;SDS011;26693;51.168;4.138;2022-12-16T07:05:31;4.10;;;2.20;;
40963;SDS011;26693;51.168;4.138;2022-12-16T07:06:51;7.07;;;5.50;;
40963;SDS011;26693;51.168;4.138;2022-12-16T07:08:10;10.10;;;3.78;;
40963;SDS011;26693;51.168;4.138;2022-12-16T07:09:29;5.35;;;2.80;;
40963;SDS011;26693;51.168;4.138;2022-12-16T07:10:50;4.57;;;0.88;;
40963;SDS011;26693;51.168;4.138;2022-12-16T07:12:09;1.05;;;0.75;;
40963;SDS011;26693;51.168;4.138;2022-12-16T07:13:28;4.47;;;2.47;;
40963;SDS011;26693;51.168;4.138;2022-12-16T07:14:48;3.15;;;2.05;;
40963;SDS011;26693;51.168;4.138;2022-12-16T07:16:07;0.63;;;0.43;;
40963;SDS011;26693;51.168;4.138;2022-12-16T07:17:27;3.90;;;1.08;;
40963;SDS011;26693;51.168;4.138;2022-12-16T07:18:46;5.15;;;2.63;;
40963;SDS011;26693;51.168;4.138;2022-12-16T07:20:05;0.25;;;0.25;;
40963;SDS011;26693;51.168;4.138;2022-12-16T07:21:25;2.28;;;1.83;;
40963;SDS011;26693;51.168;4.138;2022-12-16T07:22:44;5.53;;;1.83;;
40963;SDS011;26693;51.168;4.138;2022-12-16T07:24:04;0.10;;;0.10;;
40963;SDS011;26693;51.168;4.138;2022-12-16T07:25:23;0.40;;;0.40;;
40963;SDS011;26693;51.168;4.138;2022-12-16T07:26:42;0.43;;;0.43;;
40963;SDS011;26693;51.168;4.138;2022-12-16T07:28:01;1.63;;;1.23;;
40963;SDS011;26693;51.168;4.138;2022-12-16T07:29:21;1.70;;;1.50;;
40963;SDS011;26693;51.168;4.138;2022-12-16T07:30:41;0.65;;;0.50;;
40963;SDS011;26693;51.168;4.138;2022-12-16T07:32:00;1.33;;;0.65;;
40963;SDS011;26693;51.168;4.138;2022-12-16T07:33:19;1.55;;;1.20;;
40963;SDS011;26693;51.168;4.138;2022-12-16T07:34:39;1.33;;;1.25;;
40963;SDS011;26693;51.168;4.138;2022-12-16T07:35:58;1.13;;;1.00;;
40963;SDS011;26693;51.168;4.138;2022-12-16T07:37:18;2.92;;;1.38;;
40963;SDS011;26693;51.168;4.138;2022-12-16T07:38:37;5.43;;;1.13;;
40963;SDS011;26693;51.168;4.138;2022-12-16T07:39:56;3.15;;;2.05;;
40963;SDS011;26693;51.168;4.138;2022-12-16T07:41:35;2.07;;;1.60;;
40963;SDS011;26693;51.168;4.138;2022-12-16T07:42:55;5.85;;;3.33;;